• Join FlightAware (Why Join?)
  • Login
  • US Flag 
12:04AM EDT


 

Airport Tracker/Info


-or-


 

Live Flight TrackerFlight Track Log ✈ N129JZ ✈ 17-May-2013 ✈ KARW - KSUA

Flight Track Log - Related Links

Times and Time Zones

All times are in EDT time to prevent confusion due to time zone crossing. See the N129JZ flight status page for this flight to view local times or setup timezone preferences in your user account.

Time Position Orientation Groundspeed Altitude Reporting Facility
EDT Latitude Longitude Course Direction KTS MPH feet Rate Location/Type
11:01AM 31.1058 -81.2694 196° South 165 190 4,400  Level Jacksonville Center
11:02AM 31.0603 -81.2847 196° South 165 190 4,400 60 Level Jacksonville Center
11:02AM 31.0497 -81.2825 170° South 158 182 4,500  Climbing Jacksonville Center
11:03AM 31.0186 -81.2903 192° South 165 190 4,400 -120 Descending Jacksonville Center
11:03AM 31.0039 -81.2906 181° South 158 182 4,400  Level Jacksonville Center
11:04AM 30.9747 -81.3006 196° South 165 190 4,400  Level Jacksonville Center
11:05AM 30.9311 -81.3111 192° South 165 190 4,400  Level Jacksonville Center
11:05AM 30.9228 -81.3111 180° South 158 182 4,400 60 Level Jacksonville Center
11:06AM 30.8894 -81.3239 198° South 165 190 4,500  Climbing Jacksonville Center
11:06AM 30.8750 -81.3267 189° South 157 181 4,400 -120 Descending Jacksonville Center
11:07AM 30.8458 -81.3342 192° South 165 190 4,400 60 Level Jacksonville Center
11:07AM 30.8333 -81.3344 181° South 158 182 4,500  Climbing Jacksonville Center
11:08AM 30.8019 -81.3397 188° South 165 190 4,400  Descending Jacksonville Center
11:08AM 30.7833 -81.3425 187° South 158 182 4,500 60 Climbing Jacksonville Center
11:09AM 30.7603 -81.3431 181° South 165 190 4,500  Level Jacksonville Center
11:09AM 30.7394 -81.3433 181° South 156 180 4,500  Level Jacksonville Center
11:10AM 30.7164 -81.3414 176° South 160 184 4,500  Level Jacksonville Center
11:10AM 30.6997 -81.3417 181° South 155 178 4,500  Level Jacksonville Center
11:11AM 30.6725 -81.3419 181° South 160 184 4,500 -120 Level Jacksonville Center
11:11AM 30.6558 -81.3422 181° South 157 181 4,400  Descending Jacksonville Center
11:13AM 30.5619 -81.3414 180° South 157 181 4,500  Climbing Jacksonville Center
11:14AM 30.5181 -81.3422 181° South 157 181 4,500  Level Jacksonville Center
11:15AM 30.4722 -81.3403 178° South 156 180 4,500  Level Jacksonville Center
11:16AM 30.4239 -81.3339 173° South 158 182 4,500  Level Jacksonville Center
11:17AM 30.3800 -81.3250 170° South 160 184 4,500 -60 Level Jacksonville Center
11:18AM 30.3361 -81.3186 173° South 157 181 4,400  Descending Jacksonville Center
11:19AM 30.2942 -81.3072 167° South 158 182 4,500  Climbing Jacksonville Center
11:20AM 30.2544 -81.2983 169° South 157 181 4,500 -60 Level Jacksonville Center
11:21AM 30.2103 -81.2822 163° South 157 181 4,400  Descending Jacksonville Center
11:22AM 30.1664 -81.2661 162° South 156 180 4,500  Climbing Jacksonville Center
11:23AM 30.1264 -81.2500 161° South 156 180 4,500  Level Jacksonville Center
11:24AM 30.0847 -81.2386 167° South 159 183 4,500 -60 Level Jacksonville Center
11:25AM 30.0469 -81.2297 168° South 158 182 4,400  Descending Jacksonville Center
11:27AM 29.9819 -81.2117 166° South 159 183 4,500  Climbing Jacksonville Center
11:27AM 29.9442 -81.2003 165° South 157 181 4,500 -60 Level Jacksonville Center
11:29AM 29.9044 -81.1889 166° South 157 181 4,400 -60 Descending Jacksonville Center
11:30AM 29.8603 -81.1731 163° South 159 183 4,400  Level Jacksonville Center
11:31AM 29.8183 -81.1497 154° Southeast 156 180 4,500  Climbing Jacksonville Center
11:32AM 29.7764 -81.1386 167° South 158 182 4,400 -60 Descending Jacksonville Center
11:33AM 29.7342 -81.1156 155° Southeast 158 182 4,400  Level Jacksonville Center
11:34AM 29.6944 -81.1019 163° South 152 175 4,500  Climbing Jacksonville Center
11:35AM 29.6525 -81.0883 164° South 156 180 4,400 -120 Descending Jacksonville Center
11:36AM 29.6064 -81.0794 170° South 156 180 4,300  Descending Jacksonville Center
11:37AM 29.5667 -81.0683 166° South 154 177 4,400  Climbing Jacksonville Center
11:38AM 29.5267 -81.0525 161° South 152 175 4,400  Level Jacksonville Center
11:39AM 29.4847 -81.0411 167° South 154 177 4,500  Climbing Jacksonville Center
11:40AM 29.4450 -81.0231 158° South 154 177 4,500  Level Jacksonville Center
11:41AM 29.4008 -81.0119 168° South 150 173 4,500  Level Jacksonville Center
11:42AM 29.3611 -80.9983 163° South 151 174 4,500  Level Jacksonville Center
11:43AM 29.3211 -80.9825 161° South 148 170 4,500  Level Jacksonville Center
11:44AM 29.2811 -80.9667 161° South 146 168 4,500 -60 Level Jacksonville Center
11:45AM 29.2456 -80.9506 158° South 147 169 4,400  Descending Jacksonville Center
11:46AM 29.2056 -80.9322 158° South 146 168 4,500  Climbing Jacksonville Center
11:47AM 29.1678 -80.9117 155° Southeast 145 167 4,400 -60 Descending Jacksonville Center
11:48AM 29.1278 -80.8911 156° South 146 168 4,400  Level Jacksonville Center
11:49AM 29.0961 -80.8703 150° Southeast 145 167 4,400  Level Jacksonville Center
11:50AM 29.0622 -80.8472 149° Southeast 145 167 4,500  Climbing Jacksonville Center
11:51AM 29.0244 -80.8219 150° Southeast 146 168 4,400 -60 Descending Jacksonville Center
11:53AM 28.9667 -80.7833 150° Southeast 148 170 4,400  Level Orlando TRACON
11:54AM 28.9333 -80.7500 139° Southeast 145 167 4,400  Level Orlando TRACON
11:55AM 28.8833 -80.7333 164° South 145 167 4,400  Level Orlando TRACON
11:56AM 28.8500 -80.7000 139° Southeast 147 169 4,400 -60 Level Orlando TRACON
11:57AM 28.8167 -80.6833 156° South 156 180 4,300 -60 Descending Orlando TRACON
11:58AM 28.7833 -80.6833 180° South 153 176 4,300 -240 Level Orlando TRACON
11:59AM 28.7333 -80.7167 210° Southwest 163 188 3,900 -600 Descending Orlando TRACON
12:00PM 28.7000 -80.7333 204° Southwest 162 186 3,200 -720 Descending Orlando TRACON
12:01PM 28.6500 -80.7500 196° South 158 182 2,500 -300 Descending Orlando TRACON
12:02PM 28.6000 -80.7500 180° South 151 174 2,600 60 Climbing Orlando TRACON
12:03PM 28.5667 -80.7500 180° South 150 173 2,700  Climbing Orlando TRACON
12:04PM 28.5167 -80.7500 180° South 153 176 2,600 -60 Descending Orlando TRACON
12:05PM 28.4833 -80.7333 156° South 151 174 2,600  Level Orlando TRACON
12:06PM 28.4500 -80.7333 180° South 150 173 2,600 -60 Level Orlando TRACON
12:07PM 28.4000 -80.7333 180° South 154 177 2,500  Descending Orlando TRACON
12:08PM 28.3667 -80.7167 156° South 150 173 2,600 300 Climbing Orlando TRACON
12:09PM 28.3167 -80.7000 164° South 135 155 3,200 420 Climbing Orlando TRACON
12:10PM 28.2833 -80.6833 156° South 135 155 3,500 240 Climbing Orlando TRACON
12:11PM 28.2500 -80.6667 156° South 144 166 3,700  Climbing Orlando TRACON
12:12PM 28.2167 -80.6500 156° South 148 170 3,600  Descending Orlando TRACON
12:13PM 28.1833 -80.6333 156° South 146 168 3,700 -60 Climbing Orlando TRACON
12:14PM 28.1333 -80.6167 164° South 152 175 3,500 -180 Descending Orlando TRACON
12:15PM 28.1000 -80.6000 156° South 156 180 3,400 -60 Descending Orlando TRACON
12:16PM 28.0500 -80.5833 164° South 147 169 3,400  Level Orlando TRACON
12:17PM 28.0167 -80.5500 139° Southeast 150 173 3,400  Level Orlando TRACON
12:18PM 27.9833 -80.5333 156° South 152 175 3,400  Level Orlando TRACON
12:20PM 27.9165 -80.5166 160° South  Level FlightAware Approximate
12:27PM 27.6760 -80.4186 160° South  Level FlightAware Approximate
12:28PM 27.6417 -80.4047 160° South  Level FlightAware Approximate
12:29PM 27.6073 -80.3907 160° South  Level FlightAware Approximate
12:30PM 27.5730 -80.3768 160° South  Level FlightAware Approximate
12:31PM 27.5386 -80.3629 160° South  Level FlightAware Approximate
12:32PM 27.5043 -80.3489 160° South  Level FlightAware Approximate
12:33PM 27.4699 -80.3350 160° South  Level FlightAware Approximate
12:34PM 27.4356 -80.3211 160° South  Level FlightAware Approximate
12:35PM 27.4012 -80.3072 160° South  Level FlightAware Approximate
12:36PM 27.3673 -80.2920 156° South  Level FlightAware Approximate
12:37PM 27.3340 -80.2753 156° South  Level FlightAware Approximate
12:38PM 27.3006 -80.2586 156° South  Level FlightAware Approximate
12:39PM 27.2657 -80.2500 180° South  Level FlightAware Approximate
12:40PM 27.2304 -80.2422 160° South  Level FlightAware Approximate
12:41PM 27.1960 -80.2284 160° South  Level FlightAware Approximate
12:42PM 27.1817 -80.2213 160° South  Level Estimated
12:43PM 27.1817 -80.2213 160° South  Level Estimated
12:44PM 27.1817 -80.2213 160° South  Level Estimated
12:45PM 27.1817 -80.2213 160° South  Level Estimated
12:46PM 27.1817 -80.2213 160° South  Level Estimated
12:47PM 27.1817 -80.2213 160° South  Level Estimated
12:48PM 27.1817 -80.2213 160° South  Level Estimated
12:49PM 27.1817 -80.2213 160° South  Level Estimated
12:50PM 27.1817 -80.2213 160° South  Level Estimated
12:51PM 27.1817 -80.2213 160° South  Level Estimated
12:52PM 27.1817 -80.2213 160° South  Level Estimated
12:53PM 27.1817 -80.2213 160° South  Level Estimated
12:54PM 27.1817 -80.2213 160° South  Level Estimated
12:55PM 27.1817 -80.2213 160° South  Level Estimated
12:56PM 27.1817 -80.2213 160° South  Level Estimated
12:57PM 27.1817 -80.2213 160° South  Level Estimated
12:58PM 27.1817 -80.2213 160° South  Level Estimated
12:59PM 27.1817 -80.2213 160° South  Level Estimated
01:00PM 27.1817 -80.2213 160° South  Level Estimated
01:01PM 27.1817 -80.2213 160° South  Level Estimated
01:02PM 27.1817 -80.2213 160° South  Level Estimated
01:03PM 27.1817 -80.2213 160° South  Level Estimated
01:04PM 27.1817 -80.2213 160° South  Level Estimated
01:05PM 27.1817 -80.2213 160° South  Level Estimated
01:06PM 27.1817 -80.2213 160° South  Level Estimated
01:07PM 27.1817 -80.2213 160° South  Level Estimated
01:08PM 27.1817 -80.2213 160° South  Level Estimated